sensor_id;sensor_type;location;lat;lon;timestamp;temperature;humidity
46217;DHT22;47258;59.424;13.482;2023-02-27T00:01:00;2.50;99.90
46217;DHT22;47258;59.424;13.482;2023-02-27T00:03:27;2.50;99.90
46217;DHT22;47258;59.424;13.482;2023-02-27T00:05:55;2.60;99.90
46217;DHT22;47258;59.424;13.482;2023-02-27T00:08:22;2.60;99.90
46217;DHT22;47258;59.424;13.482;2023-02-27T00:10:49;2.60;99.90
46217;DHT22;47258;59.424;13.482;2023-02-27T00:13:18;2.60;99.90
46217;DHT22;47258;59.424;13.482;2023-02-27T00:15:45;2.70;99.90
46217;DHT22;47258;59.424;13.482;2023-02-27T00:18:14;2.70;99.90
46217;DHT22;47258;59.424;13.482;2023-02-27T00:20:41;2.70;99.90
46217;DHT22;47258;59.424;13.482;2023-02-27T00:23:08;2.70;99.90
46217;DHT22;47258;59.424;13.482;2023-02-27T00:25:35;2.80;99.90
46217;DHT22;47258;59.424;13.482;2023-02-27T00:28:02;2.80;99.90
46217;DHT22;47258;59.424;13.482;2023-02-27T00:30:31;2.80;99.90
46217;DHT22;47258;59.424;13.482;2023-02-27T00:32:59;2.80;99.90
46217;DHT22;47258;59.424;13.482;2023-02-27T00:35:26;2.80;99.90
46217;DHT22;47258;59.424;13.482;2023-02-27T00:37:53;2.90;99.90
46217;DHT22;47258;59.424;13.482;2023-02-27T00:40:20;2.90;99.90
46217;DHT22;47258;59.424;13.482;2023-02-27T00:42:49;2.90;99.90
46217;DHT22;47258;59.424;13.482;2023-02-27T00:45:17;2.90;99.90
46217;DHT22;47258;59.424;13.482;2023-02-27T00:47:46;2.90;99.90
46217;DHT22;47258;59.424;13.482;2023-02-27T00:50:13;2.90;99.90
46217;DHT22;47258;59.424;13.482;2023-02-27T00:52:40;2.90;99.90
46217;DHT22;47258;59.424;13.482;2023-02-27T00:55:08;2.90;99.90
46217;DHT22;47258;59.424;13.482;2023-02-27T00:57:35;2.90;99.90
46217;DHT22;47258;59.424;13.482;2023-02-27T01:00:04;3.00;99.90
46217;DHT22;47258;59.424;13.482;2023-02-27T01:02:32;3.00;99.90
46217;DHT22;47258;59.424;13.482;2023-02-27T01:05:00;2.90;99.90
46217;DHT22;47258;59.424;13.482;2023-02-27T01:07:27;3.00;99.90
46217;DHT22;47258;59.424;13.482;2023-02-27T01:09:54;3.00;99.90
46217;DHT22;47258;59.424;13.482;2023-02-27T01:12:21;3.00;99.90
46217;DHT22;47258;59.424;13.482;2023-02-27T01:14:48;3.10;99.90
46217;DHT22;47258;59.424;13.482;2023-02-27T01:17:16;3.00;99.90
46217;DHT22;47258;59.424;13.482;2023-02-27T01:19:43;3.10;99.90
46217;DHT22;47258;59.424;13.482;2023-02-27T01:22:11;3.00;99.90
46217;DHT22;47258;59.424;13.482;2023-02-27T01:24:38;3.10;99.90
46217;DHT22;47258;59.424;13.482;2023-02-27T01:27:06;3.10;99.90
46217;DHT22;47258;59.424;13.482;2023-02-27T01:29:33;3.10;99.90
46217;DHT22;47258;59.424;13.482;2023-02-27T01:32:00;3.10;99.90
46217;DHT22;47258;59.424;13.482;2023-02-27T01:34:27;3.10;99.90
46217;DHT22;47258;59.424;13.482;2023-02-27T01:36:54;3.10;99.90
46217;DHT22;47258;59.424;13.482;2023-02-27T01:39:22;3.10;99.90
46217;DHT22;47258;59.424;13.482;2023-02-27T01:41:50;3.10;99.90
46217;DHT22;47258;59.424;13.482;2023-02-27T01:44:17;3.20;99.90
46217;DHT22;47258;59.424;13.482;2023-02-27T01:46:45;3.20;99.90
46217;DHT22;47258;59.424;13.482;2023-02-27T01:49:14;3.20;99.90
46217;DHT22;47258;59.424;13.482;2023-02-27T01:51:46;3.20;99.90
46217;DHT22;47258;59.424;13.482;2023-02-27T01:54:16;3.20;99.90
46217;DHT22;47258;59.424;13.482;2023-02-27T01:56:46;3.30;99.90
46217;DHT22;47258;59.424;13.482;2023-02-27T01:59:14;3.20;99.90
46217;DHT22;47258;59.424;13.482;2023-02-27T02:01:41;3.20;99.90
46217;DHT22;47258;59.424;13.482;2023-02-27T02:04:13;3.30;99.90
46217;DHT22;47258;59.424;13.482;2023-02-27T02:06:45;3.30;99.90
46217;DHT22;47258;59.424;13.482;2023-02-27T02:09:14;3.30;99.90
46217;DHT22;47258;59.424;13.482;2023-02-27T02:11:42;3.30;99.90
46217;DHT22;47258;59.424;13.482;2023-02-27T02:14:11;3.20;99.90
46217;DHT22;47258;59.424;13.482;2023-02-27T02:19:52;3.20;99.90
46217;DHT22;47258;59.424;13.482;2023-02-27T02:22:44;3.20;99.90
46217;DHT22;47258;59.424;13.482;2023-02-27T02:25:40;3.20;99.90
46217;DHT22;47258;59.424;13.482;2023-02-27T02:28:19;3.20;99.90
46217;DHT22;47258;59.424;13.482;2023-02-27T02:31:16;3.20;99.90
46217;DHT22;47258;59.424;13.482;2023-02-27T02:34:22;3.30;99.90
46217;DHT22;47258;59.424;13.482;2023-02-27T02:40:17;3.20;99.90
46217;DHT22;47258;59.424;13.482;2023-02-27T02:42:52;3.20;99.90
46217;DHT22;47258;59.424;13.482;2023-02-27T02:45:26;3.20;99.90
46217;DHT22;47258;59.424;13.482;2023-02-27T02:48:00;3.20;99.90
46217;DHT22;47258;59.424;13.482;2023-02-27T02:50:33;3.10;99.90
46217;DHT22;47258;59.424;13.482;2023-02-27T02:53:05;3.20;99.90
46217;DHT22;47258;59.424;13.482;2023-02-27T02:55:39;3.20;99.90
46217;DHT22;47258;59.424;13.482;2023-02-27T02:58:11;3.20;99.90
46217;DHT22;47258;59.424;13.482;2023-02-27T03:00:44;3.20;99.90
46217;DHT22;47258;59.424;13.482;2023-02-27T03:03:18;3.10;99.90
46217;DHT22;47258;59.424;13.482;2023-02-27T03:05:50;3.20;99.90
46217;DHT22;47258;59.424;13.482;2023-02-27T03:08:24;3.10;99.90
46217;DHT22;47258;59.424;13.482;2023-02-27T03:10:56;3.10;99.90
46217;DHT22;47258;59.424;13.482;2023-02-27T03:13:30;3.10;99.90
46217;DHT22;47258;59.424;13.482;2023-02-27T03:16:03;3.10;99.90
46217;DHT22;47258;59.424;13.482;2023-02-27T03:18:35;3.10;99.90
46217;DHT22;47258;59.424;13.482;2023-02-27T03:21:07;3.10;99.90
46217;DHT22;47258;59.424;13.482;2023-02-27T03:23:41;3.10;99.90
46217;DHT22;47258;59.424;13.482;2023-02-27T03:26:12;3.10;99.90
46217;DHT22;47258;59.424;13.482;2023-02-27T03:28:47;3.10;99.90
46217;DHT22;47258;59.424;13.482;2023-02-27T03:31:20;3.10;99.90
46217;DHT22;47258;59.424;13.482;2023-02-27T03:33:52;3.00;99.90
46217;DHT22;47258;59.424;13.482;2023-02-27T03:36:26;3.00;99.90
46217;DHT22;47258;59.424;13.482;2023-02-27T03:39:03;3.00;99.90
46217;DHT22;47258;59.424;13.482;2023-02-27T03:41:36;3.00;99.90
46217;DHT22;47258;59.424;13.482;2023-02-27T03:44:10;3.10;99.90
46217;DHT22;47258;59.424;13.482;2023-02-27T03:46:40;3.00;99.90
46217;DHT22;47258;59.424;13.482;2023-02-27T03:49:07;3.00;99.90
46217;DHT22;47258;59.424;13.482;2023-02-27T03:51:35;3.00;99.90
46217;DHT22;47258;59.424;13.482;2023-02-27T03:54:05;3.00;99.90
46217;DHT22;47258;59.424;13.482;2023-02-27T03:56:38;3.00;99.90
46217;DHT22;47258;59.424;13.482;2023-02-27T03:59:06;3.00;99.90
46217;DHT22;47258;59.424;13.482;2023-02-27T04:01:33;3.00;99.90
46217;DHT22;47258;59.424;13.482;2023-02-27T04:04:04;3.00;99.90
46217;DHT22;47258;59.424;13.482;2023-02-27T04:06:33;3.00;99.90
46217;DHT22;47258;59.424;13.482;2023-02-27T04:09:25;2.90;99.90
46217;DHT22;47258;59.424;13.482;2023-02-27T04:12:11;2.90;99.90
46217;DHT22;47258;59.424;13.482;2023-02-27T04:14:52;3.00;99.90
46217;DHT22;47258;59.424;13.482;2023-02-27T04:17:24;2.90;99.90
46217;DHT22;47258;59.424;13.482;2023-02-27T04:20:01;3.00;99.90
46217;DHT22;47258;59.424;13.482;2023-02-27T04:22:38;2.90;99.90
46217;DHT22;47258;59.424;13.482;2023-02-27T04:25:30;2.90;99.90
46217;DHT22;47258;59.424;13.482;2023-02-27T04:28:08;2.90;99.90
46217;DHT22;47258;59.424;13.482;2023-02-27T04:30:43;2.90;99.90
46217;DHT22;47258;59.424;13.482;2023-02-27T04:33:20;3.00;99.90
46217;DHT22;47258;59.424;13.482;2023-02-27T04:35:51;2.90;99.90
46217;DHT22;47258;59.424;13.482;2023-02-27T04:38:24;2.90;99.90
46217;DHT22;47258;59.424;13.482;2023-02-27T04:40:54;3.00;99.90
46217;DHT22;47258;59.424;13.482;2023-02-27T04:43:24;2.90;99.90
46217;DHT22;47258;59.424;13.482;2023-02-27T04:45:54;3.00;99.90
46217;DHT22;47258;59.424;13.482;2023-02-27T04:48:25;2.90;99.90
46217;DHT22;47258;59.424;13.482;2023-02-27T04:50:56;2.90;99.90
46217;DHT22;47258;59.424;13.482;2023-02-27T04:53:26;2.90;99.90
46217;DHT22;47258;59.424;13.482;2023-02-27T04:55:58;2.90;99.90
46217;DHT22;47258;59.424;13.482;2023-02-27T04:58:32;2.90;99.90
46217;DHT22;47258;59.424;13.482;2023-02-27T05:01:04;2.90;99.90
46217;DHT22;47258;59.424;13.482;2023-02-27T05:03:34;2.90;99.90
46217;DHT22;47258;59.424;13.482;2023-02-27T05:06:02;2.90;99.90
46217;DHT22;47258;59.424;13.482;2023-02-27T05:08:33;2.80;99.90
46217;DHT22;47258;59.424;13.482;2023-02-27T05:11:06;2.80;99.90
46217;DHT22;47258;59.424;13.482;2023-02-27T05:13:40;2.70;99.90
46217;DHT22;47258;59.424;13.482;2023-02-27T05:16:12;2.60;99.90
46217;DHT22;47258;59.424;13.482;2023-02-27T05:18:43;2.50;99.90
46217;DHT22;47258;59.424;13.482;2023-02-27T05:21:20;2.50;99.90
46217;DHT22;47258;59.424;13.482;2023-02-27T05:23:55;2.40;99.90
46217;DHT22;47258;59.424;13.482;2023-02-27T05:26:33;2.40;99.90
46217;DHT22;47258;59.424;13.482;2023-02-27T05:29:06;2.30;99.90
46217;DHT22;47258;59.424;13.482;2023-02-27T05:31:41;2.30;99.90
46217;DHT22;47258;59.424;13.482;2023-02-27T05:34:12;2.20;99.90
46217;DHT22;47258;59.424;13.482;2023-02-27T05:36:44;2.30;99.90
46217;DHT22;47258;59.424;13.482;2023-02-27T05:39:14;2.20;99.90
46217;DHT22;47258;59.424;13.482;2023-02-27T05:41:45;2.20;99.90
46217;DHT22;47258;59.424;13.482;2023-02-27T05:44:18;2.20;99.90
46217;DHT22;47258;59.424;13.482;2023-02-27T05:46:55;2.20;99.90
46217;DHT22;47258;59.424;13.482;2023-02-27T05:49:25;2.30;99.90
46217;DHT22;47258;59.424;13.482;2023-02-27T05:51:55;2.30;99.90
46217;DHT22;47258;59.424;13.482;2023-02-27T05:54:28;2.30;99.90
46217;DHT22;47258;59.424;13.482;2023-02-27T05:56:58;2.30;99.90
46217;DHT22;47258;59.424;13.482;2023-02-27T05:59:33;2.30;99.90
46217;DHT22;47258;59.424;13.482;2023-02-27T06:02:01;2.30;99.90
46217;DHT22;47258;59.424;13.482;2023-02-27T06:04:28;2.30;99.90
46217;DHT22;47258;59.424;13.482;2023-02-27T06:06:56;2.40;99.90
46217;DHT22;47258;59.424;13.482;2023-02-27T06:09:23;2.40;99.90
46217;DHT22;47258;59.424;13.482;2023-02-27T06:11:50;2.40;99.90
46217;DHT22;47258;59.424;13.482;2023-02-27T06:14:17;2.40;99.90
46217;DHT22;47258;59.424;13.482;2023-02-27T06:16:45;2.40;99.90
46217;DHT22;47258;59.424;13.482;2023-02-27T06:19:13;2.50;99.90
46217;DHT22;47258;59.424;13.482;2023-02-27T06:21:40;2.50;99.90
46217;DHT22;47258;59.424;13.482;2023-02-27T06:24:07;2.50;99.90
46217;DHT22;47258;59.424;13.482;2023-02-27T06:26:34;2.60;99.90
46217;DHT22;47258;59.424;13.482;2023-02-27T06:29:01;2.60;99.90
46217;DHT22;47258;59.424;13.482;2023-02-27T06:31:28;2.70;99.90
46217;DHT22;47258;59.424;13.482;2023-02-27T06:33:56;2.70;99.90
46217;DHT22;47258;59.424;13.482;2023-02-27T06:36:24;2.70;99.90
46217;DHT22;47258;59.424;13.482;2023-02-27T06:38:51;2.70;99.90
46217;DHT22;47258;59.424;13.482;2023-02-27T06:41:18;2.70;99.90
46217;DHT22;47258;59.424;13.482;2023-02-27T06:43:45;2.70;99.90
46217;DHT22;47258;59.424;13.482;2023-02-27T06:46:12;2.70;99.90
46217;DHT22;47258;59.424;13.482;2023-02-27T06:48:39;2.70;99.90
46217;DHT22;47258;59.424;13.482;2023-02-27T06:51:07;2.80;99.90
46217;DHT22;47258;59.424;13.482;2023-02-27T06:53:34;2.80;99.90
46217;DHT22;47258;59.424;13.482;2023-02-27T06:56:02;2.90;99.90
46217;DHT22;47258;59.424;13.482;2023-02-27T06:58:29;2.90;99.90
46217;DHT22;47258;59.424;13.482;2023-02-27T07:00:57;2.90;99.90
46217;DHT22;47258;59.424;13.482;2023-02-27T07:03:25;2.90;99.90
46217;DHT22;47258;59.424;13.482;2023-02-27T07:05:52;2.90;99.90
46217;DHT22;47258;59.424;13.482;2023-02-27T07:08:20;2.90;99.90
46217;DHT22;47258;59.424;13.482;2023-02-27T07:10:48;2.90;99.90
46217;DHT22;47258;59.424;13.482;2023-02-27T07:13:15;3.00;99.90
46217;DHT22;47258;59.424;13.482;2023-02-27T07:15:42;3.00;99.90
46217;DHT22;47258;59.424;13.482;2023-02-27T07:18:09;3.10;99.90
46217;DHT22;47258;59.424;13.482;2023-02-27T07:20:37;3.10;99.90
46217;DHT22;47258;59.424;13.482;2023-02-27T07:23:04;3.20;99.90
46217;DHT22;47258;59.424;13.482;2023-02-27T07:25:33;3.20;99.90
46217;DHT22;47258;59.424;13.482;2023-02-27T07:28:00;3.30;99.90
46217;DHT22;47258;59.424;13.482;2023-02-27T07:30:27;3.30;99.90
46217;DHT22;47258;59.424;13.482;2023-02-27T07:32:55;3.30;99.90
46217;DHT22;47258;59.424;13.482;2023-02-27T07:35:22;3.40;99.90
46217;DHT22;47258;59.424;13.482;2023-02-27T07:37:49;3.40;99.90
46217;DHT22;47258;59.424;13.482;2023-02-27T07:40:17;3.40;99.90
46217;DHT22;47258;59.424;13.482;2023-02-27T07:42:47;3.50;99.90
46217;DHT22;47258;59.424;13.482;2023-02-27T07:45:14;3.50;99.90
46217;DHT22;47258;59.424;13.482;2023-02-27T07:47:43;3.50;99.90
46217;DHT22;47258;59.424;13.482;2023-02-27T07:50:11;3.50;99.90
46217;DHT22;47258;59.424;13.482;2023-02-27T07:52:39;3.60;99.90
46217;DHT22;47258;59.424;13.482;2023-02-27T07:55:07;3.60;99.90
46217;DHT22;47258;59.424;13.482;2023-02-27T07:57:34;3.60;99.90
46217;DHT22;47258;59.424;13.482;2023-02-27T08:00:03;3.70;99.90
46217;DHT22;47258;59.424;13.482;2023-02-27T08:02:31;3.70;99.90
46217;DHT22;47258;59.424;13.482;2023-02-27T08:04:58;3.80;99.90
46217;DHT22;47258;59.424;13.482;2023-02-27T08:07:25;3.90;99.90
46217;DHT22;47258;59.424;13.482;2023-02-27T08:09:52;4.00;99.90
46217;DHT22;47258;59.424;13.482;2023-02-27T08:12:20;4.00;99.90
46217;DHT22;47258;59.424;13.482;2023-02-27T08:14:47;4.20;99.90
46217;DHT22;47258;59.424;13.482;2023-02-27T08:17:15;4.30;99.90
46217;DHT22;47258;59.424;13.482;2023-02-27T08:19:42;4.40;99.90
46217;DHT22;47258;59.424;13.482;2023-02-27T08:22:09;4.40;99.90
46217;DHT22;47258;59.424;13.482;2023-02-27T08:24:37;4.40;99.90
46217;DHT22;47258;59.424;13.482;2023-02-27T08:27:05;4.50;99.90
46217;DHT22;47258;59.424;13.482;2023-02-27T08:29:32;4.50;99.90
46217;DHT22;47258;59.424;13.482;2023-02-27T08:31:59;4.50;99.90
46217;DHT22;47258;59.424;13.482;2023-02-27T08:34:28;4.60;99.90
46217;DHT22;47258;59.424;13.482;2023-02-27T08:36:55;4.60;99.90
46217;DHT22;47258;59.424;13.482;2023-02-27T08:39:23;4.70;99.90
46217;DHT22;47258;59.424;13.482;2023-02-27T08:41:50;4.80;99.90
46217;DHT22;47258;59.424;13.482;2023-02-27T08:44:19;4.90;99.90
46217;DHT22;47258;59.424;13.482;2023-02-27T08:46:46;5.00;99.90
46217;DHT22;47258;59.424;13.482;2023-02-27T08:49:13;5.10;99.90
46217;DHT22;47258;59.424;13.482;2023-02-27T08:51:41;5.10;99.90
46217;DHT22;47258;59.424;13.482;2023-02-27T08:54:08;5.20;99.90
46217;DHT22;47258;59.424;13.482;2023-02-27T08:56:35;5.20;99.90
46217;DHT22;47258;59.424;13.482;2023-02-27T08:59:02;5.30;99.90
46217;DHT22;47258;59.424;13.482;2023-02-27T09:01:29;5.30;99.90
46217;DHT22;47258;59.424;13.482;2023-02-27T09:03:59;5.40;99.90
46217;DHT22;47258;59.424;13.482;2023-02-27T09:06:27;5.50;99.90
46217;DHT22;47258;59.424;13.482;2023-02-27T09:08:56;5.60;99.90
46217;DHT22;47258;59.424;13.482;2023-02-27T09:11:23;5.70;99.90
46217;DHT22;47258;59.424;13.482;2023-02-27T09:13:51;5.70;99.90
46217;DHT22;47258;59.424;13.482;2023-02-27T09:16:18;5.80;99.90
46217;DHT22;47258;59.424;13.482;2023-02-27T09:18:45;6.00;99.90
46217;DHT22;47258;59.424;13.482;2023-02-27T09:21:13;6.20;99.90
46217;DHT22;47258;59.424;13.482;2023-02-27T09:23:40;6.60;99.90
46217;DHT22;47258;59.424;13.482;2023-02-27T09:26:09;6.70;99.90
46217;DHT22;47258;59.424;13.482;2023-02-27T09:28:36;6.70;99.90
46217;DHT22;47258;59.424;13.482;2023-02-27T09:31:07;6.70;99.90
46217;DHT22;47258;59.424;13.482;2023-02-27T09:33:35;6.70;99.90
46217;DHT22;47258;59.424;13.482;2023-02-27T09:36:03;6.70;99.90
46217;DHT22;47258;59.424;13.482;2023-02-27T09:38:31;6.70;99.90
46217;DHT22;47258;59.424;13.482;2023-02-27T09:40:58;6.80;99.90
46217;DHT22;47258;59.424;13.482;2023-02-27T09:43:31;6.70;99.90
46217;DHT22;47258;59.424;13.482;2023-02-27T09:46:00;6.70;99.90
46217;DHT22;47258;59.424;13.482;2023-02-27T09:48:30;6.60;99.90
46217;DHT22;47258;59.424;13.482;2023-02-27T09:50:59;6.50;99.90
46217;DHT22;47258;59.424;13.482;2023-02-27T09:53:29;6.50;99.90
46217;DHT22;47258;59.424;13.482;2023-02-27T09:56:03;6.50;99.90
46217;DHT22;47258;59.424;13.482;2023-02-27T09:58:44;6.60;99.90
46217;DHT22;47258;59.424;13.482;2023-02-27T10:01:17;6.80;99.90
46217;DHT22;47258;59.424;13.482;2023-02-27T10:04:07;6.90;99.90
46217;DHT22;47258;59.424;13.482;2023-02-27T10:06:40;7.10;99.90
46217;DHT22;47258;59.424;13.482;2023-02-27T10:09:18;7.20;99.90
46217;DHT22;47258;59.424;13.482;2023-02-27T10:11:53;7.30;99.90
46217;DHT22;47258;59.424;13.482;2023-02-27T10:14:33;7.50;99.90
46217;DHT22;47258;59.424;13.482;2023-02-27T10:17:06;7.50;99.90
46217;DHT22;47258;59.424;13.482;2023-02-27T10:19:38;7.60;99.90
46217;DHT22;47258;59.424;13.482;2023-02-27T10:22:09;7.70;99.90
46217;DHT22;47258;59.424;13.482;2023-02-27T10:24:41;7.80;99.90
46217;DHT22;47258;59.424;13.482;2023-02-27T10:27:14;7.90;99.90
46217;DHT22;47258;59.424;13.482;2023-02-27T10:29:43;7.90;99.90
46217;DHT22;47258;59.424;13.482;2023-02-27T10:32:14;8.00;99.90
46217;DHT22;47258;59.424;13.482;2023-02-27T10:34:45;8.00;99.90
46217;DHT22;47258;59.424;13.482;2023-02-27T10:37:14;8.00;99.90
46217;DHT22;47258;59.424;13.482;2023-02-27T10:39:46;8.00;99.90
46217;DHT22;47258;59.424;13.482;2023-02-27T10:42:14;8.00;99.90
46217;DHT22;47258;59.424;13.482;2023-02-27T10:44:44;8.00;99.90
46217;DHT22;47258;59.424;13.482;2023-02-27T10:47:12;8.10;99.90
46217;DHT22;47258;59.424;13.482;2023-02-27T10:49:40;8.10;99.90
46217;DHT22;47258;59.424;13.482;2023-02-27T10:52:10;8.10;99.90
46217;DHT22;47258;59.424;13.482;2023-02-27T10:54:38;8.10;99.90
46217;DHT22;47258;59.424;13.482;2023-02-27T10:57:18;8.10;99.90
46217;DHT22;47258;59.424;13.482;2023-02-27T10:59:53;8.10;99.90
46217;DHT22;47258;59.424;13.482;2023-02-27T11:02:25;8.20;99.90
46217;DHT22;47258;59.424;13.482;2023-02-27T11:04:54;8.20;99.90
46217;DHT22;47258;59.424;13.482;2023-02-27T11:07:27;8.20;99.90
46217;DHT22;47258;59.424;13.482;2023-02-27T11:09:59;8.20;99.90
46217;DHT22;47258;59.424;13.482;2023-02-27T11:12:28;8.20;99.90
46217;DHT22;47258;59.424;13.482;2023-02-27T11:14:59;8.10;99.90
46217;DHT22;47258;59.424;13.482;2023-02-27T11:17:28;8.00;99.90
46217;DHT22;47258;59.424;13.482;2023-02-27T11:19:58;8.00;99.90
46217;DHT22;47258;59.424;13.482;2023-02-27T11:22:27;8.00;99.90
46217;DHT22;47258;59.424;13.482;2023-02-27T11:25:16;8.00;99.90
46217;DHT22;47258;59.424;13.482;2023-02-27T11:27:44;8.00;99.90
46217;DHT22;47258;59.424;13.482;2023-02-27T11:30:22;8.00;99.90
46217;DHT22;47258;59.424;13.482;2023-02-27T11:32:52;8.10;99.90
46217;DHT22;47258;59.424;13.482;2023-02-27T11:35:23;8.10;99.90
46217;DHT22;47258;59.424;13.482;2023-02-27T11:37:53;8.10;99.90
46217;DHT22;47258;59.424;13.482;2023-02-27T11:40:22;8.10;99.90
46217;DHT22;47258;59.424;13.482;2023-02-27T11:42:55;8.00;99.90
46217;DHT22;47258;59.424;13.482;2023-02-27T11:45:31;8.00;99.90
46217;DHT22;47258;59.424;13.482;2023-02-27T11:48:00;8.00;99.90
46217;DHT22;47258;59.424;13.482;2023-02-27T11:50:54;8.00;99.90
46217;DHT22;47258;59.424;13.482;2023-02-27T11:56:26;8.00;99.90
46217;DHT22;47258;59.424;13.482;2023-02-27T11:58:59;8.00;99.90
46217;DHT22;47258;59.424;13.482;2023-02-27T12:01:32;8.10;99.90
46217;DHT22;47258;59.424;13.482;2023-02-27T12:04:04;8.10;99.90
46217;DHT22;47258;59.424;13.482;2023-02-27T12:06:39;8.10;99.90
46217;DHT22;47258;59.424;13.482;2023-02-27T12:09:19;8.20;99.90
46217;DHT22;47258;59.424;13.482;2023-02-27T12:11:48;8.20;99.90
46217;DHT22;47258;59.424;13.482;2023-02-27T12:14:20;8.20;99.90
46217;DHT22;47258;59.424;13.482;2023-02-27T12:16:52;8.30;99.90
46217;DHT22;47258;59.424;13.482;2023-02-27T12:19:23;8.30;99.90
46217;DHT22;47258;59.424;13.482;2023-02-27T12:21:55;8.30;99.90
46217;DHT22;47258;59.424;13.482;2023-02-27T12:24:26;8.30;99.90
46217;DHT22;47258;59.424;13.482;2023-02-27T12:27:04;8.40;99.90
46217;DHT22;47258;59.424;13.482;2023-02-27T12:29:38;8.40;99.90
46217;DHT22;47258;59.424;13.482;2023-02-27T12:32:15;8.40;99.90
46217;DHT22;47258;59.424;13.482;2023-02-27T12:34:47;8.50;99.90
46217;DHT22;47258;59.424;13.482;2023-02-27T12:37:21;8.50;99.90
46217;DHT22;47258;59.424;13.482;2023-02-27T12:39:50;8.60;99.90
46217;DHT22;47258;59.424;13.482;2023-02-27T12:42:54;8.60;99.90
46217;DHT22;47258;59.424;13.482;2023-02-27T12:45:41;8.60;99.90
46217;DHT22;47258;59.424;13.482;2023-02-27T12:48:26;8.70;99.90
46217;DHT22;47258;59.424;13.482;2023-02-27T12:51:02;8.70;99.90
46217;DHT22;47258;59.424;13.482;2023-02-27T12:53:47;8.70;99.90
46217;DHT22;47258;59.424;13.482;2023-02-27T12:56:20;8.60;99.90
46217;DHT22;47258;59.424;13.482;2023-02-27T12:58:53;8.60;99.90
46217;DHT22;47258;59.424;13.482;2023-02-27T13:01:34;8.60;99.90
46217;DHT22;47258;59.424;13.482;2023-02-27T13:04:15;8.60;99.90
46217;DHT22;47258;59.424;13.482;2023-02-27T13:06:47;8.60;99.90
46217;DHT22;47258;59.424;13.482;2023-02-27T13:09:27;8.70;99.90
46217;DHT22;47258;59.424;13.482;2023-02-27T13:12:06;8.70;99.90
46217;DHT22;47258;59.424;13.482;2023-02-27T13:14:44;8.70;99.90
46217;DHT22;47258;59.424;13.482;2023-02-27T13:17:17;8.70;99.90
46217;DHT22;47258;59.424;13.482;2023-02-27T13:19:50;8.70;99.90
46217;DHT22;47258;59.424;13.482;2023-02-27T13:22:27;8.70;99.90
46217;DHT22;47258;59.424;13.482;2023-02-27T13:25:01;8.80;99.90
46217;DHT22;47258;59.424;13.482;2023-02-27T13:27:33;8.80;99.90
46217;DHT22;47258;59.424;13.482;2023-02-27T13:30:14;8.90;99.90
46217;DHT22;47258;59.424;13.482;2023-02-27T13:32:48;8.80;99.90
46217;DHT22;47258;59.424;13.482;2023-02-27T13:35:29;8.80;99.90
46217;DHT22;47258;59.424;13.482;2023-02-27T13:37:58;8.80;99.90
46217;DHT22;47258;59.424;13.482;2023-02-27T13:40:34;8.70;99.90
46217;DHT22;47258;59.424;13.482;2023-02-27T13:43:31;8.70;99.90
46217;DHT22;47258;59.424;13.482;2023-02-27T13:46:00;8.70;99.90
46217;DHT22;47258;59.424;13.482;2023-02-27T13:48:47;8.70;99.90
46217;DHT22;47258;59.424;13.482;2023-02-27T13:54:31;8.70;99.90
46217;DHT22;47258;59.424;13.482;2023-02-27T13:57:23;8.70;99.90
46217;DHT22;47258;59.424;13.482;2023-02-27T13:59:53;8.80;99.90
46217;DHT22;47258;59.424;13.482;2023-02-27T14:02:42;8.80;99.90
46217;DHT22;47258;59.424;13.482;2023-02-27T14:05:12;8.80;99.90
46217;DHT22;47258;59.424;13.482;2023-02-27T14:07:54;8.80;99.90
46217;DHT22;47258;59.424;13.482;2023-02-27T14:10:27;8.70;99.90
46217;DHT22;47258;59.424;13.482;2023-02-27T14:12:54;8.70;99.90
46217;DHT22;47258;59.424;13.482;2023-02-27T14:15:54;8.70;99.90
46217;DHT22;47258;59.424;13.482;2023-02-27T14:18:53;8.70;99.90
46217;DHT22;47258;59.424;13.482;2023-02-27T14:21:51;8.70;99.90
46217;DHT22;47258;59.424;13.482;2023-02-27T14:24:21;8.70;99.90
46217;DHT22;47258;59.424;13.482;2023-02-27T14:26:52;8.70;99.90
46217;DHT22;47258;59.424;13.482;2023-02-27T14:29:22;8.70;99.90
46217;DHT22;47258;59.424;13.482;2023-02-27T14:31:55;8.70;99.90
46217;DHT22;47258;59.424;13.482;2023-02-27T14:34:23;8.70;99.90
46217;DHT22;47258;59.424;13.482;2023-02-27T14:36:52;8.70;99.90
46217;DHT22;47258;59.424;13.482;2023-02-27T14:39:24;8.70;99.90
46217;DHT22;47258;59.424;13.482;2023-02-27T14:42:02;8.70;99.90
46217;DHT22;47258;59.424;13.482;2023-02-27T14:44:37;8.70;99.90
46217;DHT22;47258;59.424;13.482;2023-02-27T14:47:05;8.70;99.90
46217;DHT22;47258;59.424;13.482;2023-02-27T14:49:33;8.70;99.90
46217;DHT22;47258;59.424;13.482;2023-02-27T14:52:20;8.70;99.90
46217;DHT22;47258;59.424;13.482;2023-02-27T14:54:48;8.70;99.90
46217;DHT22;47258;59.424;13.482;2023-02-27T14:57:19;8.70;99.90
46217;DHT22;47258;59.424;13.482;2023-02-27T14:59:47;8.70;99.90
46217;DHT22;47258;59.424;13.482;2023-02-27T15:02:20;8.70;99.90
46217;DHT22;47258;59.424;13.482;2023-02-27T15:04:51;8.60;99.90
46217;DHT22;47258;59.424;13.482;2023-02-27T15:07:21;8.60;99.90
46217;DHT22;47258;59.424;13.482;2023-02-27T15:09:53;8.60;99.90
46217;DHT22;47258;59.424;13.482;2023-02-27T15:12:23;8.60;99.90
46217;DHT22;47258;59.424;13.482;2023-02-27T15:14:52;8.50;99.90
46217;DHT22;47258;59.424;13.482;2023-02-27T15:17:22;8.50;99.90
46217;DHT22;47258;59.424;13.482;2023-02-27T15:19:51;8.50;99.90
46217;DHT22;47258;59.424;13.482;2023-02-27T15:22:20;8.40;99.90
46217;DHT22;47258;59.424;13.482;2023-02-27T15:24:48;8.40;99.90
46217;DHT22;47258;59.424;13.482;2023-02-27T15:27:18;8.40;99.90
46217;DHT22;47258;59.424;13.482;2023-02-27T15:29:50;8.30;99.90
46217;DHT22;47258;59.424;13.482;2023-02-27T15:32:24;8.30;99.90
46217;DHT22;47258;59.424;13.482;2023-02-27T15:34:52;8.30;99.90
46217;DHT22;47258;59.424;13.482;2023-02-27T15:37:21;8.30;99.90
46217;DHT22;47258;59.424;13.482;2023-02-27T15:39:51;8.20;99.90
46217;DHT22;47258;59.424;13.482;2023-02-27T15:42:22;8.20;99.90
46217;DHT22;47258;59.424;13.482;2023-02-27T15:44:52;8.20;99.90
46217;DHT22;47258;59.424;13.482;2023-02-27T15:47:22;8.10;99.90
46217;DHT22;47258;59.424;13.482;2023-02-27T15:49:53;8.10;99.90
46217;DHT22;47258;59.424;13.482;2023-02-27T15:52:22;8.10;99.90
46217;DHT22;47258;59.424;13.482;2023-02-27T15:54:51;8.10;99.90
46217;DHT22;47258;59.424;13.482;2023-02-27T15:57:20;8.10;99.90
46217;DHT22;47258;59.424;13.482;2023-02-27T15:59:48;8.00;99.90
46217;DHT22;47258;59.424;13.482;2023-02-27T16:02:21;8.00;99.90
46217;DHT22;47258;59.424;13.482;2023-02-27T16:04:49;7.90;99.90
46217;DHT22;47258;59.424;13.482;2023-02-27T16:07:18;7.80;99.90
46217;DHT22;47258;59.424;13.482;2023-02-27T16:09:49;7.70;99.90